Mount Carroll, IL

4:55 PM CDT on August 03, 2015 (GMT -0500)
Aspen Drive | | Change Station
CLOSE
Current Station
Personal Weather Station
Location: Mt. Carroll, IL
Elevation: 810 ft
Nearby Weather Stations

Elev 810 ft 42.09 °N, 89.98 °W | Updated 5 minutes ago

Clear
Clear
85.9 °F
Feels Like 85 °F
N
3.0
Wind Variable Wind from NNE
Gusts 10.0 mph

Today
High -- | Low -- °F
--% Chance of Precip.
Yesterday
High -- | Low -- °F
Precip. -- in
5:54 AM 8:16 PM
Waning Gibbous, 84% visible
Pressure 29.89 in
Visibility 10.0 miles
Clouds Clear
Heat Index 85 °F
Dew Point 56 °F
Humidity 36%
Rainfall 0.00 in
Snow Depth Not available.
UV 5 out of 12
Pollen 6.30 out of 12
Air Quality Not available.
Flu Activity Not available.
METAR KSFY 032135Z AUTO 28009KT 10SM CLR 27/09 A2989 RMK AO2 T02740086

More Conditions Fewer Conditions

Pressure 29.89 in
Visibility 10.0 miles
Clouds Clear
Heat Index 85 °F
Dew Point 56 °F
Humidity 36%
Rainfall 0.00 in
Snow Depth Not available.
UV 5 out of 12
Pollen 6.30 out of 12
Air Quality Not available.
Flu Activity Not available.
METAR KSFY 032135Z AUTO 28009KT 10SM CLR 27/09 A2989 RMK AO2 T02740086

More Conditions Fewer Conditions

10-Day Weather Forecast

×

Almanac

Astronomy

Aug. 03, 2015 Rise Set
Actual Time
Civil Twilight
Nautical Twilight
Astronomical Twilight
Moon
Length of Visible Light
Length of Day
Tomorrow will be .
, % of the Moon is Illuminated

Today's Extremes

State Highs State Lows

Community

WunderPhotos

Upload Photos

1,843,770 photos uploaded!

WunderBlogs® & News

Nearby

Air Quality

  Air Quality AQ Index Pollutant
Not available.

Snow Depth

Station Depth Elevation

Earthquake Activity

City Distance Mag. Time & Date
Minimum magnitude displayed is 2.5.

Coastal Water Temperatures

Place Temperature

Stations

Nearby Weather Stations

Station Location Temp. Windchill Dew Point Humidity Wind Precip. Elev Updated Type